Aérodrome :
LOGIN :

S'inscrire | Disclaimer

   EN    FR    IT 

 










Légende :    VFR   VFR Marginal   IFR   IFR Intensif   IFR Très Intensif
Visi : 
Plafond : 
>= 8 km
>= 3000ft
5 à 8 km
1000 à 3000 ft
1500m à 5 km
500 à 1000 ft
800 à 1500m
200 à 500 ft
< 800m
< 200 ft
Symboles :   Orages  Brouillard  Fortes neiges  Fortes précipitations  Vent > 20 kt
SIGMETs :   Divers  Orages  Givrage  Turbulence  Onde Orograph.  Cendres Volcan.






- Altitude de l'aérodrome : 313 ft
- Code IATA : LEH


LFOH - Le Havre Octeville

DERNIER METAR :
  • 060500Z AUTO 22014KT 7000 -RA OVC011/// ///CB 07/06 Q1015

METARs EXPIRÉS :
  • 060430Z AUTO 21013KT 6000 -RA SCT011/// BKN016/// BKN035/// ///TCU 07/05 Q1015
  • 060400Z AUTO 21013KT 9999 OVC016/// ///TCU 06/05 Q1016
  • 060330Z AUTO 22015KT 9999 SCT017 BKN030 BKN036 06/05 Q1016
  • 060300Z AUTO 22014KT 9999 FEW022 BKN029 OVC036 06/05 Q1016
  • 060230Z AUTO 22014KT 9999 SCT031 OVC062 06/05 Q1017

TAF AMD TAF LFOH
Valide du 05 à 12h jusqu'au 06 à 12h UTC


051245Z 0512/0612 21005KT 8000 SCT020
TEMPO 0512/0514 BKN008
BECMG 0520/0523 20015G25KT BKN013
TEMPO 0602/0612 2000 DZRA BR OVC003
ATIS : +33 2 35 54 64 93



MET'MAP, la Météo Aéronautique d'un coup d'oeil ! - Copyright ORBIFLY Décembre 2007 - Disclaimer

ORBIFLY MET'MAP TEAM :

Programmation & Développement : Alexandra Zaïnal
Sur une idée originale de : Baudouin d'Aumeries
Assistance à la programmation : Marc-Olivier Méhu
Soutien technique & logistique : Manuel Goepfert

Contact : metmap@orbifly.com




SOURCES & CREDITS :

   NOAA